createdAt,value
2022-12-11T00:04:04.981Z,11.32
2022-12-11T00:09:06.626Z,12.95
2022-12-11T00:14:08.429Z,13.60
2022-12-11T00:19:10.119Z,14.07
2022-12-11T00:24:11.779Z,14.57
2022-12-11T00:29:14.831Z,14.18
2022-12-11T00:34:19.230Z,13.50
2022-12-11T00:39:20.887Z,13.32
2022-12-11T00:44:22.540Z,13.77
2022-12-11T00:49:24.162Z,13.57
2022-12-11T00:54:26.098Z,13.45
2022-12-11T00:59:28.573Z,15.30
2022-12-11T01:04:30.409Z,12.55
2022-12-11T01:09:50.601Z,14.05
2022-12-11T01:14:52.246Z,15.02
2022-12-11T01:19:54.854Z,13.05
2022-12-11T01:24:56.479Z,13.10
2022-12-11T01:29:58.438Z,12.82
2022-12-11T01:35:00.570Z,13.60
2022-12-11T01:40:02.220Z,12.20
2022-12-11T01:45:23.836Z,13.10
2022-12-11T01:50:28.269Z,11.65
2022-12-11T01:55:29.975Z,12.82
2022-12-11T02:00:31.648Z,12.57
2022-12-11T02:05:33.404Z,12.32
2022-12-11T02:10:41.113Z,13.02
2022-12-11T02:15:50.108Z,13.70
2022-12-11T02:21:13.089Z,12.40
2022-12-11T02:26:39.641Z,12.30
2022-12-11T02:31:41.266Z,10.88
2022-12-11T02:36:50.507Z,11.07
2022-12-11T02:41:52.342Z,12.27
2022-12-11T02:46:54.873Z,11.25
2022-12-11T02:51:57.012Z,10.50
2022-12-11T02:57:17.545Z,10.63
2022-12-11T03:02:19.364Z,10.82
2022-12-11T03:07:25.416Z,10.07
2022-12-11T03:12:33.283Z,11.02
2022-12-11T03:18:02.859Z,10.77
2022-12-11T03:23:12.991Z,9.32
2022-12-11T03:28:21.248Z,9.23
2022-12-11T03:33:30.048Z,9.13
2022-12-11T03:38:36.081Z,10.50
2022-12-11T03:43:38.806Z,10.15
2022-12-11T03:48:41.916Z,10.38
2022-12-11T03:53:44.103Z,9.85
2022-12-11T03:58:45.779Z,9.68
2022-12-11T04:03:47.441Z,9.18
2022-12-11T04:08:49.136Z,9.02
2022-12-11T04:14:10.904Z,9.50
2022-12-11T04:19:30.856Z,8.93
2022-12-11T04:29:40.374Z,9.40
2022-12-11T04:34:42.386Z,10.77
2022-12-11T04:39:44.275Z,9.68
2022-12-11T04:44:45.946Z,10.10
2022-12-11T04:49:47.571Z,8.25
2022-12-11T04:54:49.209Z,8.63
2022-12-11T04:59:50.843Z,9.57
2022-12-11T05:04:52.575Z,8.88
2022-12-11T05:09:54.261Z,9.80
2022-12-11T05:14:55.952Z,10.05
2022-12-11T05:19:57.546Z,11.63
2022-12-11T05:24:59.184Z,10.85
2022-12-11T05:30:00.802Z,10.70
2022-12-11T05:35:03.754Z,10.13
2022-12-11T05:40:06.412Z,8.60
2022-12-11T05:45:08.704Z,11.05
2022-12-11T05:50:10.984Z,8.50
2022-12-11T05:55:15.413Z,7.18
2022-12-11T06:00:17.066Z,8.13
2022-12-11T06:05:18.701Z,7.13
2022-12-11T06:10:20.351Z,7.65
2022-12-11T06:15:22.238Z,7.00
2022-12-11T06:20:23.854Z,7.47
2022-12-11T06:25:25.851Z,6.75
2022-12-11T06:30:38.733Z,6.35
2022-12-11T06:35:42.473Z,6.85
2022-12-11T06:40:44.531Z,7.53
2022-12-11T06:45:46.243Z,6.47
2022-12-11T06:50:47.905Z,6.18
2022-12-11T06:55:49.593Z,6.57
2022-12-11T07:00:51.278Z,7.45
2022-12-11T07:05:52.949Z,6.30
2022-12-11T07:10:57.234Z,6.22
2022-12-11T07:16:00.294Z,6.10
2022-12-11T07:21:01.942Z,7.20
2022-12-11T07:26:12.180Z,7.05
2022-12-11T07:31:16.412Z,6.30
2022-12-11T07:36:18.324Z,7.47
2022-12-11T07:41:23.235Z,6.05
2022-12-11T07:46:30.183Z,5.90
2022-12-11T07:51:35.565Z,6.32
2022-12-11T07:56:37.196Z,5.43
2022-12-11T08:01:39.807Z,6.70
2022-12-11T08:06:42.396Z,6.63
2022-12-11T08:11:44.225Z,6.78
2022-12-11T08:16:47.335Z,6.18
2022-12-11T08:21:49.029Z,7.03
2022-12-11T08:26:50.699Z,5.85
2022-12-11T08:31:52.406Z,5.90
2022-12-11T08:36:54.304Z,5.63
2022-12-11T08:41:55.941Z,5.82
2022-12-11T08:46:57.583Z,7.03
2022-12-11T08:51:59.183Z,5.30
2022-12-11T08:57:00.805Z,6.45
2022-12-11T09:02:02.463Z,6.18
2022-12-11T09:07:04.442Z,6.35
2022-12-11T09:12:06.340Z,6.15
2022-12-11T09:17:08.879Z,7.85
2022-12-11T09:22:13.320Z,5.38
2022-12-11T09:27:15.014Z,6.05
2022-12-11T09:32:16.676Z,6.15
2022-12-11T09:37:18.715Z,6.97
2022-12-11T09:42:37.421Z,5.63
2022-12-11T09:47:44.389Z,7.57
2022-12-11T09:52:54.709Z,5.00
2022-12-11T09:58:05.353Z,6.85
2022-12-11T10:03:15.795Z,5.93
2022-12-11T10:08:41.926Z,6.32
2022-12-11T10:14:06.213Z,5.50
2022-12-11T10:19:25.216Z,4.63
2022-12-11T10:25:12.559Z,4.75
2022-12-11T10:30:24.079Z,6.22
2022-12-11T10:35:39.561Z,5.60
2022-12-11T10:40:44.724Z,5.68
2022-12-11T10:45:58.534Z,5.47
2022-12-11T10:51:06.264Z,6.50
2022-12-11T11:01:18.738Z,8.10
2022-12-11T11:06:22.143Z,6.43
2022-12-11T11:11:33.940Z,6.55
2022-12-11T11:16:38.207Z,5.55
2022-12-11T11:21:49.160Z,5.85
2022-12-11T11:27:12.802Z,6.43
2022-12-11T11:32:33.030Z,6.00
2022-12-11T11:37:34.971Z,6.43
2022-12-11T11:42:45.904Z,7.25
2022-12-11T11:48:03.121Z,6.25
2022-12-11T11:53:15.956Z,5.07
2022-12-11T11:58:25.733Z,5.82
2022-12-11T12:03:28.772Z,5.95
2022-12-11T12:08:36.152Z,6.05
2022-12-11T12:13:53.672Z,7.03
2022-12-11T12:19:23.454Z,6.35
2022-12-11T12:24:43.408Z,6.60
2022-12-11T12:30:21.838Z,6.95
2022-12-11T12:35:37.633Z,6.43
2022-12-11T12:41:18.897Z,6.28
2022-12-11T12:46:51.812Z,7.50
2022-12-11T12:51:56.717Z,5.57
2022-12-11T12:57:01.660Z,7.05
2022-12-11T13:02:04.642Z,6.22
2022-12-11T13:07:15.253Z,6.45
2022-12-11T13:12:38.201Z,7.55
2022-12-11T13:17:39.901Z,7.18
2022-12-11T13:22:48.949Z,7.20
2022-12-11T13:27:50.874Z,7.22
2022-12-11T13:33:05.225Z,6.97
2022-12-11T13:38:20.829Z,6.53
2022-12-11T13:43:25.201Z,7.65
2022-12-11T13:48:50.613Z,6.15
2022-12-11T13:54:17.010Z,6.40
2022-12-11T13:59:29.219Z,6.55
2022-12-11T14:04:32.308Z,6.80
2022-12-11T14:09:34.031Z,6.40
2022-12-11T14:14:44.766Z,6.72
2022-12-11T14:19:49.729Z,6.75
2022-12-11T14:24:53.350Z,6.35
2022-12-11T14:29:55.258Z,6.32
2022-12-11T14:34:57.217Z,7.18
2022-12-11T14:40:09.151Z,7.47
2022-12-11T14:45:20.472Z,7.20
2022-12-11T14:50:38.358Z,7.68
2022-12-11T14:55:40.112Z,7.10
2022-12-11T15:00:44.473Z,8.63
2022-12-11T15:05:54.550Z,8.45
2022-12-11T15:11:13.850Z,8.57
2022-12-11T15:16:16.043Z,7.68
2022-12-11T15:21:18.175Z,6.63
2022-12-11T15:26:22.920Z,7.93
2022-12-11T15:31:33.580Z,7.32
2022-12-11T15:36:36.237Z,7.53
2022-12-11T15:41:38.007Z,7.68
2022-12-11T15:46:39.989Z,8.75
2022-12-11T15:51:44.821Z,8.55
2022-12-11T15:56:47.034Z,8.68
2022-12-11T16:01:49.121Z,8.38
2022-12-11T16:06:51.363Z,6.95
2022-12-11T16:11:53.042Z,7.32
2022-12-11T16:16:54.761Z,8.90
2022-12-11T16:21:56.420Z,8.25
2022-12-11T16:26:59.201Z,7.45
2022-12-11T16:32:01.031Z,7.07
2022-12-11T16:37:03.770Z,8.80
2022-12-11T16:42:08.665Z,8.35
2022-12-11T16:47:10.776Z,7.15
2022-12-11T16:52:15.290Z,7.45
2022-12-11T16:57:19.353Z,7.85
2022-12-11T17:02:21.239Z,7.95
2022-12-11T17:07:22.905Z,7.68
2022-12-11T17:12:27.740Z,8.43
2022-12-11T17:17:29.449Z,7.57
2022-12-11T17:22:31.359Z,6.65
2022-12-11T17:27:33.018Z,7.90
2022-12-11T17:32:34.639Z,7.22
2022-12-11T17:37:36.320Z,8.05
2022-12-11T17:42:37.939Z,8.02
2022-12-11T17:47:39.880Z,7.60
2022-12-11T17:52:44.290Z,8.48
2022-12-11T17:57:46.527Z,7.60
2022-12-11T18:02:48.749Z,8.38
2022-12-11T18:07:55.891Z,8.27
2022-12-11T18:12:59.348Z,8.95
2022-12-11T18:18:00.971Z,7.63
2022-12-11T18:23:02.819Z,8.30
2022-12-11T18:28:04.968Z,6.90
2022-12-11T18:33:07.025Z,8.18
2022-12-11T18:38:12.247Z,8.63
2022-12-11T18:43:14.069Z,7.88
2022-12-11T18:48:16.166Z,8.55
2022-12-11T18:53:18.805Z,7.63
2022-12-11T18:58:20.873Z,9.02
2022-12-11T19:36:59.006Z,9.00
2022-12-11T19:42:03.695Z,7.70
2022-12-11T19:47:12.340Z,8.48
2022-12-11T19:52:14.575Z,9.40
2022-12-11T19:57:30.017Z,9.10
2022-12-11T20:02:34.345Z,8.88
2022-12-11T20:07:38.512Z,7.75
2022-12-11T20:12:42.736Z,10.48
2022-12-11T20:17:47.979Z,7.93
2022-12-11T20:22:53.805Z,7.88
2022-12-11T20:27:57.483Z,7.88
2022-12-11T20:32:59.310Z,8.30
2022-12-11T20:38:01.034Z,9.15
2022-12-11T20:43:02.674Z,8.18
2022-12-11T20:48:04.628Z,9.75
2022-12-11T20:53:06.673Z,7.95
2022-12-11T20:58:08.955Z,10.10
2022-12-11T21:03:51.825Z,8.18
2022-12-11T21:15:01.795Z,8.30
2022-12-11T21:20:04.213Z,7.15
2022-12-11T21:25:06.476Z,7.63
2022-12-11T21:30:11.960Z,8.48
2022-12-11T21:35:14.179Z,8.95
2022-12-11T21:40:24.663Z,8.82
2022-12-11T21:51:47.811Z,9.23
2022-12-11T21:56:53.582Z,7.43
2022-12-11T22:01:55.280Z,8.00
2022-12-11T22:07:03.400Z,8.80
2022-12-11T22:12:06.721Z,8.95
2022-12-11T22:17:11.091Z,7.60
2022-12-11T22:22:21.984Z,8.52
2022-12-11T22:27:30.909Z,9.30
2022-12-11T22:32:40.161Z,7.90
2022-12-11T22:37:41.756Z,8.88
2022-12-11T22:42:44.138Z,8.15
2022-12-11T22:47:45.785Z,8.82
2022-12-11T22:52:47.485Z,8.40
2022-12-11T22:57:50.531Z,9.02
2022-12-11T23:02:53.639Z,9.15
2022-12-11T23:07:55.488Z,9.93
2022-12-11T23:12:57.156Z,8.93
2022-12-11T23:17:58.900Z,9.20
2022-12-11T23:23:00.970Z,9.02
2022-12-11T23:28:02.890Z,8.75
2022-12-11T23:33:06.595Z,9.05
2022-12-11T23:38:08.286Z,7.45
2022-12-11T23:43:09.904Z,8.40
2022-12-11T23:48:14.881Z,8.25
2022-12-11T23:53:16.685Z,8.88
2022-12-11T23:58:18.582Z,9.70
